sensor_id;sensor_type;location;lat;lon;timestamp;temperature;humidity
27376;DHT22;14844;51.302;6.354;2023-09-08T00:00:09;17.00;99.90
27376;DHT22;14844;51.302;6.354;2023-09-08T00:02:35;17.00;99.90
27376;DHT22;14844;51.302;6.354;2023-09-08T00:05:00;17.00;99.90
27376;DHT22;14844;51.302;6.354;2023-09-08T00:07:26;16.90;99.90
27376;DHT22;14844;51.302;6.354;2023-09-08T00:09:51;16.90;99.90
27376;DHT22;14844;51.302;6.354;2023-09-08T00:12:17;16.90;99.90
27376;DHT22;14844;51.302;6.354;2023-09-08T00:14:42;16.90;99.90
27376;DHT22;14844;51.302;6.354;2023-09-08T00:17:08;16.90;99.90
27376;DHT22;14844;51.302;6.354;2023-09-08T00:19:33;16.90;99.90
27376;DHT22;14844;51.302;6.354;2023-09-08T00:21:59;16.80;99.90
27376;DHT22;14844;51.302;6.354;2023-09-08T00:24:26;16.90;99.90
27376;DHT22;14844;51.302;6.354;2023-09-08T00:26:52;16.90;99.90
27376;DHT22;14844;51.302;6.354;2023-09-08T00:29:17;16.90;99.90
27376;DHT22;14844;51.302;6.354;2023-09-08T00:31:43;16.90;99.90
27376;DHT22;14844;51.302;6.354;2023-09-08T00:34:08;16.80;99.90
27376;DHT22;14844;51.302;6.354;2023-09-08T00:36:34;16.70;99.90
27376;DHT22;14844;51.302;6.354;2023-09-08T00:38:59;16.70;99.90
27376;DHT22;14844;51.302;6.354;2023-09-08T00:41:24;16.70;99.90
27376;DHT22;14844;51.302;6.354;2023-09-08T00:43:50;16.70;99.90
27376;DHT22;14844;51.302;6.354;2023-09-08T00:46:16;16.60;99.90
27376;DHT22;14844;51.302;6.354;2023-09-08T00:48:42;16.60;99.90
27376;DHT22;14844;51.302;6.354;2023-09-08T00:51:07;16.60;99.90
27376;DHT22;14844;51.302;6.354;2023-09-08T00:53:35;16.50;99.90
27376;DHT22;14844;51.302;6.354;2023-09-08T00:56:00;16.50;99.90
27376;DHT22;14844;51.302;6.354;2023-09-08T00:58:26;16.50;99.90
27376;DHT22;14844;51.302;6.354;2023-09-08T01:00:51;16.60;99.90
27376;DHT22;14844;51.302;6.354;2023-09-08T01:03:17;16.70;99.90
27376;DHT22;14844;51.302;6.354;2023-09-08T01:05:43;16.70;99.90
27376;DHT22;14844;51.302;6.354;2023-09-08T01:08:09;16.70;99.90
27376;DHT22;14844;51.302;6.354;2023-09-08T01:10:35;16.70;99.90
27376;DHT22;14844;51.302;6.354;2023-09-08T01:13:02;16.60;99.90
27376;DHT22;14844;51.302;6.354;2023-09-08T01:15:27;16.50;99.90
27376;DHT22;14844;51.302;6.354;2023-09-08T01:17:53;16.40;99.90
27376;DHT22;14844;51.302;6.354;2023-09-08T01:20:20;16.40;99.90
27376;DHT22;14844;51.302;6.354;2023-09-08T01:25:20;16.30;99.90
27376;DHT22;14844;51.302;6.354;2023-09-08T01:27:50;16.20;99.90
27376;DHT22;14844;51.302;6.354;2023-09-08T01:30:16;16.10;99.90
27376;DHT22;14844;51.302;6.354;2023-09-08T01:32:42;16.10;99.90
27376;DHT22;14844;51.302;6.354;2023-09-08T01:35:08;16.20;99.90
27376;DHT22;14844;51.302;6.354;2023-09-08T01:37:34;16.20;99.90
27376;DHT22;14844;51.302;6.354;2023-09-08T01:40:01;16.10;99.90
27376;DHT22;14844;51.302;6.354;2023-09-08T01:42:27;16.00;99.90
27376;DHT22;14844;51.302;6.354;2023-09-08T01:44:52;15.90;99.90
27376;DHT22;14844;51.302;6.354;2023-09-08T01:47:18;15.80;99.90
27376;DHT22;14844;51.302;6.354;2023-09-08T01:49:43;15.80;99.90
27376;DHT22;14844;51.302;6.354;2023-09-08T01:52:09;15.70;99.90
27376;DHT22;14844;51.302;6.354;2023-09-08T01:54:34;15.80;99.90
27376;DHT22;14844;51.302;6.354;2023-09-08T01:56:59;15.80;99.90
27376;DHT22;14844;51.302;6.354;2023-09-08T01:59:25;16.00;99.90
27376;DHT22;14844;51.302;6.354;2023-09-08T02:01:50;16.10;99.90
27376;DHT22;14844;51.302;6.354;2023-09-08T02:04:16;16.00;99.90
27376;DHT22;14844;51.302;6.354;2023-09-08T02:06:41;16.00;99.90
27376;DHT22;14844;51.302;6.354;2023-09-08T02:09:07;15.90;99.90
27376;DHT22;14844;51.302;6.354;2023-09-08T02:11:34;15.90;99.90
27376;DHT22;14844;51.302;6.354;2023-09-08T02:13:59;15.80;99.90
27376;DHT22;14844;51.302;6.354;2023-09-08T02:16:25;15.70;99.90
27376;DHT22;14844;51.302;6.354;2023-09-08T02:18:50;15.60;99.90
27376;DHT22;14844;51.302;6.354;2023-09-08T02:21:15;15.50;99.90
27376;DHT22;14844;51.302;6.354;2023-09-08T02:23:41;15.40;99.90
27376;DHT22;14844;51.302;6.354;2023-09-08T02:26:06;15.40;99.90
27376;DHT22;14844;51.302;6.354;2023-09-08T02:28:32;15.30;99.90
27376;DHT22;14844;51.302;6.354;2023-09-08T02:30:57;15.30;99.90
27376;DHT22;14844;51.302;6.354;2023-09-08T02:33:23;15.30;99.90
27376;DHT22;14844;51.302;6.354;2023-09-08T02:35:48;15.20;99.90
27376;DHT22;14844;51.302;6.354;2023-09-08T02:38:14;15.30;99.90
27376;DHT22;14844;51.302;6.354;2023-09-08T02:40:39;15.30;99.90
27376;DHT22;14844;51.302;6.354;2023-09-08T02:43:04;15.30;99.90
27376;DHT22;14844;51.302;6.354;2023-09-08T02:45:30;15.20;99.90
27376;DHT22;14844;51.302;6.354;2023-09-08T02:47:55;15.10;99.90
27376;DHT22;14844;51.302;6.354;2023-09-08T02:50:21;15.10;99.90
27376;DHT22;14844;51.302;6.354;2023-09-08T02:52:47;15.00;99.90
27376;DHT22;14844;51.302;6.354;2023-09-08T02:55:12;14.90;99.90
27376;DHT22;14844;51.302;6.354;2023-09-08T02:57:38;14.90;99.90
27376;DHT22;14844;51.302;6.354;2023-09-08T03:00:04;14.90;99.90
27376;DHT22;14844;51.302;6.354;2023-09-08T03:02:30;14.80;99.90
27376;DHT22;14844;51.302;6.354;2023-09-08T03:04:56;14.80;99.90
27376;DHT22;14844;51.302;6.354;2023-09-08T03:07:22;14.70;99.90
27376;DHT22;14844;51.302;6.354;2023-09-08T03:09:47;14.70;99.90
27376;DHT22;14844;51.302;6.354;2023-09-08T03:12:13;14.70;99.90
27376;DHT22;14844;51.302;6.354;2023-09-08T03:14:38;14.70;99.90
27376;DHT22;14844;51.302;6.354;2023-09-08T03:17:04;14.70;99.90
27376;DHT22;14844;51.302;6.354;2023-09-08T03:19:29;14.70;99.90
27376;DHT22;14844;51.302;6.354;2023-09-08T03:21:55;15.00;99.90
27376;DHT22;14844;51.302;6.354;2023-09-08T03:24:20;15.00;99.90
27376;DHT22;14844;51.302;6.354;2023-09-08T03:26:45;14.90;99.90
27376;DHT22;14844;51.302;6.354;2023-09-08T03:29:11;14.90;99.90
27376;DHT22;14844;51.302;6.354;2023-09-08T03:31:36;14.70;99.90
27376;DHT22;14844;51.302;6.354;2023-09-08T03:34:02;14.70;99.90
27376;DHT22;14844;51.302;6.354;2023-09-08T03:36:27;14.60;99.90
27376;DHT22;14844;51.302;6.354;2023-09-08T03:38:53;14.50;99.90
27376;DHT22;14844;51.302;6.354;2023-09-08T03:41:18;14.50;99.90
27376;DHT22;14844;51.302;6.354;2023-09-08T03:43:44;14.50;99.90
27376;DHT22;14844;51.302;6.354;2023-09-08T03:46:09;14.40;99.90
27376;DHT22;14844;51.302;6.354;2023-09-08T03:48:34;14.40;99.90
27376;DHT22;14844;51.302;6.354;2023-09-08T03:51:00;14.40;99.90
27376;DHT22;14844;51.302;6.354;2023-09-08T03:53:25;14.40;99.90
27376;DHT22;14844;51.302;6.354;2023-09-08T03:55:51;14.40;99.90
27376;DHT22;14844;51.302;6.354;2023-09-08T03:58:16;14.50;99.90
27376;DHT22;14844;51.302;6.354;2023-09-08T04:00:42;14.40;99.90
27376;DHT22;14844;51.302;6.354;2023-09-08T04:03:08;14.30;99.90
27376;DHT22;14844;51.302;6.354;2023-09-08T04:05:33;14.30;99.90
27376;DHT22;14844;51.302;6.354;2023-09-08T04:07:58;14.30;99.90
27376;DHT22;14844;51.302;6.354;2023-09-08T04:10:24;14.30;99.90
27376;DHT22;14844;51.302;6.354;2023-09-08T04:12:50;14.20;99.90
27376;DHT22;14844;51.302;6.354;2023-09-08T04:15:15;14.20;99.90
27376;DHT22;14844;51.302;6.354;2023-09-08T04:17:41;14.20;99.90
27376;DHT22;14844;51.302;6.354;2023-09-08T04:20:06;14.20;99.90
27376;DHT22;14844;51.302;6.354;2023-09-08T04:22:33;14.20;99.90
27376;DHT22;14844;51.302;6.354;2023-09-08T04:24:59;14.10;99.90
27376;DHT22;14844;51.302;6.354;2023-09-08T04:27:24;14.10;99.90
27376;DHT22;14844;51.302;6.354;2023-09-08T04:29:50;14.10;99.90
27376;DHT22;14844;51.302;6.354;2023-09-08T04:32:15;14.10;99.90
27376;DHT22;14844;51.302;6.354;2023-09-08T04:34:41;14.10;99.90
27376;DHT22;14844;51.302;6.354;2023-09-08T04:37:07;14.10;99.90
27376;DHT22;14844;51.302;6.354;2023-09-08T04:39:33;14.20;99.90
27376;DHT22;14844;51.302;6.354;2023-09-08T04:41:59;14.20;99.90
27376;DHT22;14844;51.302;6.354;2023-09-08T04:44:24;14.20;99.90
27376;DHT22;14844;51.302;6.354;2023-09-08T04:46:50;14.20;99.90
27376;DHT22;14844;51.302;6.354;2023-09-08T04:49:16;14.20;99.90
27376;DHT22;14844;51.302;6.354;2023-09-08T04:51:41;14.10;99.90
27376;DHT22;14844;51.302;6.354;2023-09-08T04:54:07;14.10;99.90
27376;DHT22;14844;51.302;6.354;2023-09-08T04:56:32;14.10;99.90
27376;DHT22;14844;51.302;6.354;2023-09-08T04:58:58;14.10;99.90
27376;DHT22;14844;51.302;6.354;2023-09-08T05:01:26;14.10;99.90
27376;DHT22;14844;51.302;6.354;2023-09-08T05:03:52;14.10;99.90
27376;DHT22;14844;51.302;6.354;2023-09-08T05:06:17;14.10;99.90
27376;DHT22;14844;51.302;6.354;2023-09-08T05:08:43;14.20;99.90
27376;DHT22;14844;51.302;6.354;2023-09-08T05:11:09;14.20;99.90
27376;DHT22;14844;51.302;6.354;2023-09-08T05:13:35;14.30;99.90
27376;DHT22;14844;51.302;6.354;2023-09-08T05:16:00;14.30;99.90
27376;DHT22;14844;51.302;6.354;2023-09-08T05:18:39;14.40;99.90
27376;DHT22;14844;51.302;6.354;2023-09-08T05:21:05;14.40;99.90
27376;DHT22;14844;51.302;6.354;2023-09-08T05:23:30;14.50;99.90
27376;DHT22;14844;51.302;6.354;2023-09-08T05:25:56;14.60;99.90
27376;DHT22;14844;51.302;6.354;2023-09-08T05:28:21;14.70;99.90
27376;DHT22;14844;51.302;6.354;2023-09-08T05:30:47;14.80;99.90
27376;DHT22;14844;51.302;6.354;2023-09-08T05:33:12;15.00;99.90
27376;DHT22;14844;51.302;6.354;2023-09-08T05:35:38;15.00;99.90
27376;DHT22;14844;51.302;6.354;2023-09-08T05:38:03;15.20;99.90
27376;DHT22;14844;51.302;6.354;2023-09-08T05:40:29;15.30;99.90
27376;DHT22;14844;51.302;6.354;2023-09-08T05:42:54;15.40;99.90
27376;DHT22;14844;51.302;6.354;2023-09-08T05:45:20;15.60;99.90
27376;DHT22;14844;51.302;6.354;2023-09-08T05:47:45;15.70;99.90
27376;DHT22;14844;51.302;6.354;2023-09-08T05:50:11;15.80;99.90
27376;DHT22;14844;51.302;6.354;2023-09-08T05:52:36;16.00;99.90
27376;DHT22;14844;51.302;6.354;2023-09-08T05:55:02;16.10;99.90
27376;DHT22;14844;51.302;6.354;2023-09-08T05:57:27;16.30;99.90
27376;DHT22;14844;51.302;6.354;2023-09-08T05:59:52;16.50;99.90
27376;DHT22;14844;51.302;6.354;2023-09-08T06:02:18;16.60;99.90
27376;DHT22;14844;51.302;6.354;2023-09-08T06:04:43;16.70;99.90
27376;DHT22;14844;51.302;6.354;2023-09-08T06:07:09;16.90;99.90
27376;DHT22;14844;51.302;6.354;2023-09-08T06:09:34;17.10;99.90
27376;DHT22;14844;51.302;6.354;2023-09-08T06:12:00;17.30;99.90
27376;DHT22;14844;51.302;6.354;2023-09-08T06:14:25;17.50;99.90
27376;DHT22;14844;51.302;6.354;2023-09-08T06:16:51;17.70;99.90
27376;DHT22;14844;51.302;6.354;2023-09-08T06:19:16;17.90;99.90
27376;DHT22;14844;51.302;6.354;2023-09-08T06:21:42;18.10;99.90
27376;DHT22;14844;51.302;6.354;2023-09-08T06:24:07;18.20;99.90
27376;DHT22;14844;51.302;6.354;2023-09-08T06:26:33;18.40;99.90
27376;DHT22;14844;51.302;6.354;2023-09-08T06:28:58;18.60;99.90
27376;DHT22;14844;51.302;6.354;2023-09-08T06:31:24;18.70;99.90
27376;DHT22;14844;51.302;6.354;2023-09-08T06:33:49;19.00;99.90
27376;DHT22;14844;51.302;6.354;2023-09-08T06:36:17;19.10;99.90
27376;DHT22;14844;51.302;6.354;2023-09-08T06:38:43;19.30;99.90
27376;DHT22;14844;51.302;6.354;2023-09-08T06:41:09;19.50;99.90
27376;DHT22;14844;51.302;6.354;2023-09-08T06:43:35;19.70;99.90
27376;DHT22;14844;51.302;6.354;2023-09-08T06:46:01;19.90;99.90
27376;DHT22;14844;51.302;6.354;2023-09-08T06:48:26;20.10;99.90
27376;DHT22;14844;51.302;6.354;2023-09-08T06:50:55;20.20;99.90
27376;DHT22;14844;51.302;6.354;2023-09-08T06:53:22;20.40;99.90
27376;DHT22;14844;51.302;6.354;2023-09-08T06:55:47;20.60;99.90
27376;DHT22;14844;51.302;6.354;2023-09-08T06:58:13;20.70;99.90
27376;DHT22;14844;51.302;6.354;2023-09-08T07:00:40;20.90;99.90
27376;DHT22;14844;51.302;6.354;2023-09-08T07:03:05;21.10;99.90
27376;DHT22;14844;51.302;6.354;2023-09-08T07:05:31;21.30;99.90
27376;DHT22;14844;51.302;6.354;2023-09-08T07:07:56;21.40;99.90
27376;DHT22;14844;51.302;6.354;2023-09-08T07:10:22;21.50;99.90
27376;DHT22;14844;51.302;6.354;2023-09-08T07:12:47;21.70;99.90
27376;DHT22;14844;51.302;6.354;2023-09-08T07:15:13;21.90;99.90
27376;DHT22;14844;51.302;6.354;2023-09-08T07:17:39;22.00;99.90
27376;DHT22;14844;51.302;6.354;2023-09-08T07:20:05;22.20;99.90
27376;DHT22;14844;51.302;6.354;2023-09-08T07:22:31;22.40;99.90
27376;DHT22;14844;51.302;6.354;2023-09-08T07:24:56;22.50;99.90
27376;DHT22;14844;51.302;6.354;2023-09-08T07:27:21;22.60;99.90
27376;DHT22;14844;51.302;6.354;2023-09-08T07:29:47;22.80;99.90
27376;DHT22;14844;51.302;6.354;2023-09-08T07:32:15;23.00;99.90
27376;DHT22;14844;51.302;6.354;2023-09-08T07:34:40;23.20;99.90
27376;DHT22;14844;51.302;6.354;2023-09-08T07:37:06;23.30;99.90
27376;DHT22;14844;51.302;6.354;2023-09-08T07:39:32;23.40;99.90
27376;DHT22;14844;51.302;6.354;2023-09-08T07:41:58;23.60;99.90
27376;DHT22;14844;51.302;6.354;2023-09-08T07:44:24;23.70;99.90
27376;DHT22;14844;51.302;6.354;2023-09-08T07:46:49;23.80;99.90
27376;DHT22;14844;51.302;6.354;2023-09-08T07:49:17;23.90;99.90
27376;DHT22;14844;51.302;6.354;2023-09-08T07:51:44;24.10;99.90
27376;DHT22;14844;51.302;6.354;2023-09-08T07:54:10;24.20;99.90
27376;DHT22;14844;51.302;6.354;2023-09-08T07:56:35;24.40;99.90
27376;DHT22;14844;51.302;6.354;2023-09-08T07:59:01;24.60;99.90
27376;DHT22;14844;51.302;6.354;2023-09-08T08:01:26;24.60;99.90
27376;DHT22;14844;51.302;6.354;2023-09-08T08:03:51;24.70;99.90
27376;DHT22;14844;51.302;6.354;2023-09-08T08:06:17;24.80;99.90
27376;DHT22;14844;51.302;6.354;2023-09-08T08:08:42;24.90;99.90
27376;DHT22;14844;51.302;6.354;2023-09-08T08:11:12;25.00;99.90
27376;DHT22;14844;51.302;6.354;2023-09-08T08:13:37;25.10;99.90
27376;DHT22;14844;51.302;6.354;2023-09-08T08:16:03;25.10;99.90
27376;DHT22;14844;51.302;6.354;2023-09-08T08:18:28;25.20;99.90
27376;DHT22;14844;51.302;6.354;2023-09-08T08:20:54;25.40;99.90
27376;DHT22;14844;51.302;6.354;2023-09-08T08:23:19;25.40;99.90
27376;DHT22;14844;51.302;6.354;2023-09-08T08:25:45;25.50;99.90
27376;DHT22;14844;51.302;6.354;2023-09-08T08:28:10;25.40;99.90
27376;DHT22;14844;51.302;6.354;2023-09-08T08:30:36;25.40;99.90
27376;DHT22;14844;51.302;6.354;2023-09-08T08:33:01;25.50;99.90
27376;DHT22;14844;51.302;6.354;2023-09-08T08:35:27;25.70;99.90
27376;DHT22;14844;51.302;6.354;2023-09-08T08:37:53;25.90;99.90
27376;DHT22;14844;51.302;6.354;2023-09-08T08:40:18;26.10;99.90
27376;DHT22;14844;51.302;6.354;2023-09-08T08:42:44;26.20;99.90
27376;DHT22;14844;51.302;6.354;2023-09-08T08:45:09;26.30;99.90
27376;DHT22;14844;51.302;6.354;2023-09-08T08:47:35;26.50;99.90
27376;DHT22;14844;51.302;6.354;2023-09-08T08:50:01;26.50;99.90
27376;DHT22;14844;51.302;6.354;2023-09-08T08:52:27;26.60;99.90
27376;DHT22;14844;51.302;6.354;2023-09-08T08:54:53;26.70;99.90
27376;DHT22;14844;51.302;6.354;2023-09-08T08:57:18;26.60;99.90
27376;DHT22;14844;51.302;6.354;2023-09-08T08:59:44;26.60;99.90
27376;DHT22;14844;51.302;6.354;2023-09-08T09:02:11;26.80;99.90
27376;DHT22;14844;51.302;6.354;2023-09-08T09:04:37;27.00;99.90
27376;DHT22;14844;51.302;6.354;2023-09-08T09:07:03;27.10;99.90
27376;DHT22;14844;51.302;6.354;2023-09-08T09:09:29;27.30;99.90
27376;DHT22;14844;51.302;6.354;2023-09-08T09:11:54;27.50;99.90
27376;DHT22;14844;51.302;6.354;2023-09-08T09:14:20;27.50;99.90
27376;DHT22;14844;51.302;6.354;2023-09-08T09:16:48;27.50;99.90
27376;DHT22;14844;51.302;6.354;2023-09-08T09:19:20;27.70;99.90
27376;DHT22;14844;51.302;6.354;2023-09-08T09:21:57;27.90;99.90
27376;DHT22;14844;51.302;6.354;2023-09-08T09:24:30;27.80;99.90
27376;DHT22;14844;51.302;6.354;2023-09-08T09:26:57;28.00;99.90
27376;DHT22;14844;51.302;6.354;2023-09-08T09:29:22;28.10;99.90
27376;DHT22;14844;51.302;6.354;2023-09-08T09:32:06;28.10;99.90
27376;DHT22;14844;51.302;6.354;2023-09-08T09:34:33;28.10;99.90
27376;DHT22;14844;51.302;6.354;2023-09-08T09:36:59;28.20;99.90
27376;DHT22;14844;51.302;6.354;2023-09-08T09:39:25;28.40;99.90
27376;DHT22;14844;51.302;6.354;2023-09-08T09:41:54;28.50;99.90
27376;DHT22;14844;51.302;6.354;2023-09-08T09:44:19;28.50;99.90
27376;DHT22;14844;51.302;6.354;2023-09-08T09:46:46;28.60;99.90
27376;DHT22;14844;51.302;6.354;2023-09-08T09:49:12;28.70;99.90
27376;DHT22;14844;51.302;6.354;2023-09-08T09:51:46;28.70;99.90
27376;DHT22;14844;51.302;6.354;2023-09-08T09:54:12;28.80;99.90
27376;DHT22;14844;51.302;6.354;2023-09-08T09:56:38;28.90;99.90
27376;DHT22;14844;51.302;6.354;2023-09-08T09:59:04;29.10;99.90
27376;DHT22;14844;51.302;6.354;2023-09-08T10:01:30;29.20;99.90
27376;DHT22;14844;51.302;6.354;2023-09-08T10:03:56;29.30;99.90
27376;DHT22;14844;51.302;6.354;2023-09-08T10:06:23;29.40;99.60
27376;DHT22;14844;51.302;6.354;2023-09-08T10:08:48;29.50;99.20
27376;DHT22;14844;51.302;6.354;2023-09-08T10:11:16;29.60;99.30
27376;DHT22;14844;51.302;6.354;2023-09-08T10:13:46;29.60;99.40
27376;DHT22;14844;51.302;6.354;2023-09-08T10:16:12;29.60;99.00
27376;DHT22;14844;51.302;6.354;2023-09-08T10:18:39;29.50;99.50
27376;DHT22;14844;51.302;6.354;2023-09-08T10:21:06;29.50;99.10
27376;DHT22;14844;51.302;6.354;2023-09-08T10:23:37;29.60;99.20
27376;DHT22;14844;51.302;6.354;2023-09-08T10:26:05;29.50;99.10
27376;DHT22;14844;51.302;6.354;2023-09-08T10:28:31;29.40;99.50
27376;DHT22;14844;51.302;6.354;2023-09-08T10:30:57;29.60;99.20
27376;DHT22;14844;51.302;6.354;2023-09-08T10:33:23;29.80;99.30
27376;DHT22;14844;51.302;6.354;2023-09-08T10:35:49;29.80;98.60
27376;DHT22;14844;51.302;6.354;2023-09-08T10:38:25;29.80;98.40
27376;DHT22;14844;51.302;6.354;2023-09-08T10:40:51;30.00;98.30
27376;DHT22;14844;51.302;6.354;2023-09-08T10:43:17;30.20;98.30
27376;DHT22;14844;51.302;6.354;2023-09-08T10:45:43;30.40;97.60
27376;DHT22;14844;51.302;6.354;2023-09-08T10:48:09;30.50;97.20
27376;DHT22;14844;51.302;6.354;2023-09-08T10:50:35;30.60;96.60
27376;DHT22;14844;51.302;6.354;2023-09-08T10:53:04;30.60;96.40
27376;DHT22;14844;51.302;6.354;2023-09-08T10:55:36;30.60;95.70
27376;DHT22;14844;51.302;6.354;2023-09-08T10:58:03;30.60;95.80
27376;DHT22;14844;51.302;6.354;2023-09-08T11:00:29;30.60;95.80
27376;DHT22;14844;51.302;6.354;2023-09-08T11:03:07;30.70;95.30
27376;DHT22;14844;51.302;6.354;2023-09-08T11:05:33;30.90;95.70
27376;DHT22;14844;51.302;6.354;2023-09-08T11:07:59;30.90;95.60
27376;DHT22;14844;51.302;6.354;2023-09-08T11:10:24;30.90;95.60
27376;DHT22;14844;51.302;6.354;2023-09-08T11:12:50;30.80;95.30
27376;DHT22;14844;51.302;6.354;2023-09-08T11:15:16;30.60;95.70
27376;DHT22;14844;51.302;6.354;2023-09-08T11:17:42;30.60;96.10
27376;DHT22;14844;51.302;6.354;2023-09-08T11:20:08;30.70;95.90
27376;DHT22;14844;51.302;6.354;2023-09-08T11:22:35;30.90;96.30
27376;DHT22;14844;51.302;6.354;2023-09-08T11:25:01;30.90;95.70
27376;DHT22;14844;51.302;6.354;2023-09-08T11:27:30;30.90;95.50
27376;DHT22;14844;51.302;6.354;2023-09-08T11:29:56;30.80;95.70
27376;DHT22;14844;51.302;6.354;2023-09-08T11:32:22;30.90;95.30
27376;DHT22;14844;51.302;6.354;2023-09-08T11:34:48;30.70;95.60
27376;DHT22;14844;51.302;6.354;2023-09-08T11:37:14;30.90;95.00
27376;DHT22;14844;51.302;6.354;2023-09-08T11:39:41;30.80;95.30
27376;DHT22;14844;51.302;6.354;2023-09-08T11:42:07;30.90;94.60
27376;DHT22;14844;51.302;6.354;2023-09-08T11:44:34;31.10;94.70
27376;DHT22;14844;51.302;6.354;2023-09-08T11:47:00;31.20;94.70
27376;DHT22;14844;51.302;6.354;2023-09-08T11:49:26;31.30;94.20
27376;DHT22;14844;51.302;6.354;2023-09-08T11:51:51;31.30;93.80
27376;DHT22;14844;51.302;6.354;2023-09-08T11:54:17;31.40;93.70
27376;DHT22;14844;51.302;6.354;2023-09-08T11:56:43;31.30;92.90
27376;DHT22;14844;51.302;6.354;2023-09-08T11:59:08;31.40;94.00
27376;DHT22;14844;51.302;6.354;2023-09-08T12:01:34;31.50;93.20
27376;DHT22;14844;51.302;6.354;2023-09-08T12:03:59;31.60;93.40
27376;DHT22;14844;51.302;6.354;2023-09-08T12:06:25;31.60;93.70
27376;DHT22;14844;51.302;6.354;2023-09-08T12:08:51;31.60;93.40
27376;DHT22;14844;51.302;6.354;2023-09-08T12:11:16;31.60;93.40
27376;DHT22;14844;51.302;6.354;2023-09-08T12:13:42;31.60;93.30
27376;DHT22;14844;51.302;6.354;2023-09-08T12:16:17;31.60;93.10
27376;DHT22;14844;51.302;6.354;2023-09-08T12:18:43;31.60;92.80
27376;DHT22;14844;51.302;6.354;2023-09-08T12:21:10;31.70;92.80
27376;DHT22;14844;51.302;6.354;2023-09-08T12:23:40;31.80;93.30
27376;DHT22;14844;51.302;6.354;2023-09-08T12:26:11;31.60;92.80
27376;DHT22;14844;51.302;6.354;2023-09-08T12:28:37;31.70;93.50
27376;DHT22;14844;51.302;6.354;2023-09-08T12:31:03;31.80;93.10
27376;DHT22;14844;51.302;6.354;2023-09-08T12:33:28;31.70;93.00
27376;DHT22;14844;51.302;6.354;2023-09-08T12:35:53;31.70;92.80
27376;DHT22;14844;51.302;6.354;2023-09-08T12:38:19;31.70;92.20
27376;DHT22;14844;51.302;6.354;2023-09-08T12:40:44;31.40;92.20
27376;DHT22;14844;51.302;6.354;2023-09-08T12:43:10;31.30;92.70
27376;DHT22;14844;51.302;6.354;2023-09-08T12:45:35;31.40;93.70
27376;DHT22;14844;51.302;6.354;2023-09-08T12:48:01;31.50;93.50
27376;DHT22;14844;51.302;6.354;2023-09-08T12:50:28;31.50;92.90
27376;DHT22;14844;51.302;6.354;2023-09-08T12:52:53;31.40;92.30
27376;DHT22;14844;51.302;6.354;2023-09-08T12:55:19;31.40;92.20
27376;DHT22;14844;51.302;6.354;2023-09-08T12:57:44;31.50;92.90
27376;DHT22;14844;51.302;6.354;2023-09-08T13:00:10;31.50;92.30
27376;DHT22;14844;51.302;6.354;2023-09-08T13:02:35;31.40;92.80
27376;DHT22;14844;51.302;6.354;2023-09-08T13:05:01;31.40;92.60
27376;DHT22;14844;51.302;6.354;2023-09-08T13:07:27;31.30;92.80
27376;DHT22;14844;51.302;6.354;2023-09-08T13:09:52;31.30;92.60
27376;DHT22;14844;51.302;6.354;2023-09-08T13:12:18;31.40;93.10
27376;DHT22;14844;51.302;6.354;2023-09-08T13:14:44;31.50;93.20
27376;DHT22;14844;51.302;6.354;2023-09-08T13:17:12;31.70;92.40
27376;DHT22;14844;51.302;6.354;2023-09-08T13:19:40;31.80;92.00
27376;DHT22;14844;51.302;6.354;2023-09-08T13:22:06;31.80;92.00
27376;DHT22;14844;51.302;6.354;2023-09-08T13:24:32;31.80;92.00
27376;DHT22;14844;51.302;6.354;2023-09-08T13:26:58;31.90;92.00
27376;DHT22;14844;51.302;6.354;2023-09-08T13:29:23;31.90;92.30
27376;DHT22;14844;51.302;6.354;2023-09-08T13:31:49;31.90;92.60
27376;DHT22;14844;51.302;6.354;2023-09-08T13:34:14;31.80;92.10
27376;DHT22;14844;51.302;6.354;2023-09-08T13:36:39;31.80;91.60
27376;DHT22;14844;51.302;6.354;2023-09-08T13:39:05;31.70;91.80
27376;DHT22;14844;51.302;6.354;2023-09-08T13:44:12;31.60;91.50
27376;DHT22;14844;51.302;6.354;2023-09-08T13:46:37;31.60;92.10
27376;DHT22;14844;51.302;6.354;2023-09-08T13:49:03;31.60;91.80
27376;DHT22;14844;51.302;6.354;2023-09-08T13:51:28;31.60;92.20
27376;DHT22;14844;51.302;6.354;2023-09-08T13:53:54;31.60;92.10
27376;DHT22;14844;51.302;6.354;2023-09-08T13:56:19;31.70;92.30
27376;DHT22;14844;51.302;6.354;2023-09-08T13:58:44;31.80;92.50
27376;DHT22;14844;51.302;6.354;2023-09-08T14:01:10;31.80;92.10
27376;DHT22;14844;51.302;6.354;2023-09-08T14:03:36;31.80;92.00
27376;DHT22;14844;51.302;6.354;2023-09-08T14:06:01;31.90;91.70
27376;DHT22;14844;51.302;6.354;2023-09-08T14:08:27;31.90;91.90
27376;DHT22;14844;51.302;6.354;2023-09-08T14:10:52;32.00;91.60
27376;DHT22;14844;51.302;6.354;2023-09-08T14:13:19;32.00;91.90
27376;DHT22;14844;51.302;6.354;2023-09-08T14:15:44;32.00;91.80
27376;DHT22;14844;51.302;6.354;2023-09-08T14:18:10;32.00;91.90
27376;DHT22;14844;51.302;6.354;2023-09-08T14:20:35;32.00;91.90
27376;DHT22;14844;51.302;6.354;2023-09-08T14:23:01;31.90;92.00
27376;DHT22;14844;51.302;6.354;2023-09-08T14:25:26;31.80;92.10
27376;DHT22;14844;51.302;6.354;2023-09-08T14:27:52;31.90;92.60
27376;DHT22;14844;51.302;6.354;2023-09-08T14:30:17;32.00;91.80
27376;DHT22;14844;51.302;6.354;2023-09-08T14:32:43;31.90;91.40
27376;DHT22;14844;51.302;6.354;2023-09-08T14:35:08;31.90;92.00
27376;DHT22;14844;51.302;6.354;2023-09-08T14:37:34;31.80;92.00
27376;DHT22;14844;51.302;6.354;2023-09-08T14:39:59;31.80;92.70
27376;DHT22;14844;51.302;6.354;2023-09-08T14:42:25;31.70;92.20
27376;DHT22;14844;51.302;6.354;2023-09-08T14:44:50;31.60;92.50
27376;DHT22;14844;51.302;6.354;2023-09-08T14:47:17;31.60;92.50
27376;DHT22;14844;51.302;6.354;2023-09-08T14:49:42;31.50;91.70
27376;DHT22;14844;51.302;6.354;2023-09-08T14:52:08;31.40;91.80
27376;DHT22;14844;51.302;6.354;2023-09-08T14:54:33;31.30;91.80
27376;DHT22;14844;51.302;6.354;2023-09-08T14:56:59;31.30;91.70
27376;DHT22;14844;51.302;6.354;2023-09-08T14:59:24;31.20;92.10
27376;DHT22;14844;51.302;6.354;2023-09-08T15:01:50;31.20;92.10
27376;DHT22;14844;51.302;6.354;2023-09-08T15:04:16;31.10;92.40
27376;DHT22;14844;51.302;6.354;2023-09-08T15:06:41;31.10;91.90
27376;DHT22;14844;51.302;6.354;2023-09-08T15:09:07;31.30;92.30
27376;DHT22;14844;51.302;6.354;2023-09-08T15:11:32;31.60;92.50
27376;DHT22;14844;51.302;6.354;2023-09-08T15:13:58;32.40;92.10
27376;DHT22;14844;51.302;6.354;2023-09-08T15:16:23;33.30;91.80
27376;DHT22;14844;51.302;6.354;2023-09-08T15:18:49;34.00;90.10
27376;DHT22;14844;51.302;6.354;2023-09-08T15:21:15;34.40;89.30
27376;DHT22;14844;51.302;6.354;2023-09-08T15:23:41;35.50;87.60
27376;DHT22;14844;51.302;6.354;2023-09-08T15:26:06;35.90;85.40